Time;durP1;ratioP1;P1;durP2;ratioP2;P2;SDS_P1;SDS_P2;PMS_P1;PMS_P2;Temp;Humidity;BMP_temperature;BMP_pressure;BME280_temperature;BME280_humidity;BME280_pressure;Samples;Min_cycle;Max_cycle;Signal;HPM_P1;HPM_P2
2023/10/12 00:00:41;;;;;;;;;;;;;;;16.00;100.00;101051.09;5114657;28;19919;-48
2023/10/12 00:03:07;;;;;;;;;;;;;;;15.95;100.00;101048.44;5115861;28;19980;-47
2023/10/12 00:05:34;;;;;;;;;;;;;;;15.90;100.00;101060.50;5115238;28;20355;-49
2023/10/12 00:08:06;;;;;;;;;;;;;;;15.88;100.00;101059.63;5114823;28;19912;-48
2023/10/12 00:10:40;;;;;;;;;;;;;;;15.87;100.00;101065.69;5115369;28;19911;-48
2023/10/12 00:13:06;;;;;;;;;;;;;;;15.85;100.00;101071.72;5114632;28;20278;-47
2023/10/12 00:15:37;;;;;;;;;;;;;;;15.80;100.00;101075.09;5115112;28;19915;-49
2023/10/12 00:18:08;;;;;;;;;;;;;;;15.75;100.00;101071.59;5115533;28;19912;-47
2023/10/12 00:20:35;;;;;;;;;;;;;;;15.73;100.00;101080.22;5114343;28;20410;-48
2023/10/12 00:23:10;;;;;;;;;;;;;;;15.69;100.00;101070.63;5115436;28;19964;-48
2023/10/12 00:25:47;;;;;;;;;;;;;;;15.66;100.00;101063.69;5114955;28;20397;-50
2023/10/12 00:28:15;;;;;;;;;;;;;;;15.63;100.00;101071.41;5113997;28;20347;-49
2023/10/12 00:30:41;;;;;;;;;;;;;;;15.61;100.00;101080.94;5115264;28;19912;-47
2023/10/12 00:33:08;;;;;;;;;;;;;;;15.58;100.00;101080.88;5115108;28;19922;-48
2023/10/12 00:35:34;;;;;;;;;;;;;;;15.55;100.00;101080.84;5113868;28;20287;-48
2023/10/12 00:38:02;;;;;;;;;;;;;;;15.55;100.00;101086.06;5115055;28;19918;-47
2023/10/12 00:40:30;;;;;;;;;;;;;;;15.53;100.00;101085.16;5114649;28;20386;-47
2023/10/12 00:42:59;;;;;;;;;;;;;;;15.51;100.00;101087.72;5114256;28;19916;-47
2023/10/12 00:45:31;;;;;;;;;;;;;;;15.49;100.00;101097.22;5114671;28;19994;-49
2023/10/12 00:48:01;;;;;;;;;;;;;;;15.47;100.00;101106.72;5114983;28;20003;-47
2023/10/12 00:50:28;;;;;;;;;;;;;;;15.44;100.00;101117.06;5113872;28;19942;-47
2023/10/12 00:52:57;;;;;;;;;;;;;;;15.45;100.00;101113.63;5114663;28;19918;-47
2023/10/12 00:55:34;;;;;;;;;;;;;;;15.42;100.00;101111.84;5113827;28;19916;-47
2023/10/12 00:58:00;;;;;;;;;;;;;;;15.41;100.00;101117.88;5114454;28;19961;-47
2023/10/12 01:00:26;;;;;;;;;;;;;;;15.39;100.00;101116.13;5114170;28;19911;-47
2023/10/12 01:03:09;;;;;;;;;;;;;;;15.37;100.00;101123.03;5113686;28;19911;-47
2023/10/12 01:05:35;;;;;;;;;;;;;;;15.34;100.00;101116.06;5114376;28;19912;-47
2023/10/12 01:08:02;;;;;;;;;;;;;;;15.33;100.00;101109.13;5114660;28;19912;-46
2023/10/12 01:10:31;;;;;;;;;;;;;;;15.31;100.00;101110.81;5113409;28;19923;-47
2023/10/12 01:12:57;;;;;;;;;;;;;;;15.29;100.00;101110.81;5113862;28;19915;-46
2023/10/12 01:15:27;;;;;;;;;;;;;;;15.29;100.00;101102.16;5114005;28;20060;-46
2023/10/12 01:17:52;;;;;;;;;;;;;;;15.25;100.00;101101.22;5113370;28;20371;-46
2023/10/12 01:20:25;;;;;;;;;;;;;;;15.25;100.00;101115.94;5114065;28;19919;-46
2023/10/12 01:22:51;;;;;;;;;;;;;;;15.23;100.00;101117.63;5114352;28;19912;-46
2023/10/12 01:25:28;;;;;;;;;;;;;;;15.21;100.00;101124.50;5113094;28;19922;-47
2023/10/12 01:27:54;;;;;;;;;;;;;;;15.20;100.00;101128.00;5114200;28;19911;-47
2023/10/12 01:30:22;;;;;;;;;;;;;;;15.19;100.00;101123.63;5113257;28;20290;-46
2023/10/12 01:32:57;;;;;;;;;;;;;;;15.15;100.00;101115.78;5113993;28;20015;-47
2023/10/12 01:35:27;;;;;;;;;;;;;;;15.15;100.00;101120.13;5113919;28;19972;-48
2023/10/12 01:38:00;;;;;;;;;;;;;;;15.13;100.00;101101.94;5113190;28;20354;-46
2023/10/12 01:40:26;;;;;;;;;;;;;;;15.13;100.00;101086.34;5113731;28;20358;-49
2023/10/12 01:42:51;;;;;;;;;;;;;;;15.11;100.00;101074.19;5113801;28;19965;-50
2023/10/12 01:48:22;;;;;;;;;;;;;;;15.09;100.00;101063.81;5114014;28;19957;-47
2023/10/12 01:50:40;;;;;;;;;;;;;;;15.09;100.00;101063.81;5110596;28;19918;-51
2023/10/12 01:53:09;;;;;;;;;;;;;;;15.08;100.00;101072.44;5112957;28;19920;-51
2023/10/12 01:55:35;;;;;;;;;;;;;;;15.06;100.00;101074.13;5113465;28;20266;-51
2023/10/12 01:58:04;;;;;;;;;;;;;;;15.05;100.00;101072.38;5113619;28;19915;-51
2023/10/12 02:00:42;;;;;;;;;;;;;;;15.03;100.00;101071.50;5112706;28;19968;-50
2023/10/12 02:06:19;;;;;;;;;;;;;;;15.00;100.00;101074.03;5112787;28;19911;-51
2023/10/12 02:08:45;;;;;;;;;;;;;;;14.96;100.00;101073.13;5110485;28;19922;-49
2023/10/12 02:11:25;;;;;;;;;;;;;;;14.94;100.00;101079.16;5113560;28;19912;-49
2023/10/12 02:13:51;;;;;;;;;;;;;;;14.92;100.00;101086.88;5112777;28;19920;-51
2023/10/12 02:16:30;;;;;;;;;;;;;;;14.91;100.00;101084.28;5113230;28;19916;-48
2023/10/12 02:18:56;;;;;;;;;;;;;;;14.89;100.00;101080.78;5113401;28;19947;-51
2023/10/12 02:21:22;;;;;;;;;;;;;;;14.88;100.00;101079.91;5112219;28;19951;-49
2023/10/12 02:23:54;;;;;;;;;;;;;;;14.87;100.00;101085.06;5113411;28;19922;-51
2023/10/12 02:26:35;;;;;;;;;;;;;;;14.86;100.00;101091.09;5116777;28;19912;-51
2023/10/12 02:29:11;;;;;;;;;;;;;;;14.84;100.00;101088.50;5117757;28;19907;-50
2023/10/12 02:34:21;;;;;;;;;;;;;;;14.79;100.00;101098.78;5116467;28;19964;-50
2023/10/12 02:39:32;;;;;;;;;;;;;;;14.74;100.00;101050.28;5117062;28;20351;-51
2023/10/12 02:44:57;;;;;;;;;;;;;;;14.70;100.00;101049.34;5117591;28;19918;-50
2023/10/12 02:47:23;;;;;;;;;;;;;;;14.70;100.00;101062.31;5116844;28;19918;-50
2023/10/12 02:50:15;;;;;;;;;;;;;;;14.68;100.00;101051.06;5116487;28;19962;-50
2023/10/12 02:52:37;;;;;;;;;;;;;;;14.67;100.00;101057.09;5116913;28;20301;-50
2023/10/12 02:55:49;;;;;;;;;;;;;;;14.64;100.00;101063.13;5116397;28;20795;-50
2023/10/12 02:58:07;;;;;;;;;;;;;;;14.62;100.00;101066.50;5108141;28;19995;-50
2023/10/12 03:00:35;;;;;;;;;;;;;;;14.60;100.00;101057.81;5117028;28;19915;-50
2023/10/12 03:03:07;;;;;;;;;;;;;;;14.57;100.00;101058.63;5116239;28;19912;-50
2023/10/12 03:05:45;;;;;;;;;;;;;;;14.55;100.00;101043.88;5116557;28;19916;-51
2023/10/12 03:08:14;;;;;;;;;;;;;;;14.54;100.00;101026.56;5116781;28;19912;-50
2023/10/12 03:11:01;;;;;;;;;;;;;;;14.52;100.00;101017.91;5116097;28;19912;-50
2023/10/12 03:13:36;;;;;;;;;;;;;;;14.48;100.00;101030.81;5116589;28;19912;-50
2023/10/12 03:16:05;;;;;;;;;;;;;;;14.46;100.00;101044.59;5115915;28;20415;-51
2023/10/12 03:18:30;;;;;;;;;;;;;;;14.45;100.00;101048.06;5116384;28;19911;-51
2023/10/12 03:21:04;;;;;;;;;;;;;;;14.43;100.00;101037.63;5116711;28;19918;-50
2023/10/12 03:23:33;;;;;;;;;;;;;;;14.41;100.00;101036.75;5115539;28;19912;-50
2023/10/12 03:26:03;;;;;;;;;;;;;;;14.40;100.00;101039.34;5116524;28;19965;-51
2023/10/12 03:28:30;;;;;;;;;;;;;;;14.40;100.00;101045.38;5116029;28;20308;-49
2023/10/12 03:31:53;;;;;;;;;;;;;;;14.38;100.00;101048.78;5115609;28;19912;-51
2023/10/12 03:33:46;;;;;;;;;;;;;;;14.37;100.00;101045.34;5108826;28;19915;-51
2023/10/12 03:36:22;;;;;;;;;;;;;;;14.37;100.00;101047.03;5115615;28;19938;-49
2023/10/12 03:38:58;;;;;;;;;;;;;;;14.36;100.00;101051.38;5115553;28;19965;-51
2023/10/12 03:43:54;;;;;;;;;;;;;;;14.35;100.00;101041.84;5116343;28;19912;-50
2023/10/12 03:46:29;;;;;;;;;;;;;;;14.35;100.00;101052.22;5115028;28;19956;-51
2023/10/12 03:49:08;;;;;;;;;;;;;;;14.32;100.00;101057.34;5116117;28;19995;-50
2023/10/12 03:51:42;;;;;;;;;;;;;;;14.32;100.00;101070.31;5114952;28;19912;-50
2023/10/12 03:54:26;;;;;;;;;;;;;;;14.32;100.00;101062.53;5115927;28;19911;-48
2023/10/12 03:56:53;;;;;;;;;;;;;;;14.31;100.00;101063.38;5115750;28;20359;-51
2023/10/12 03:59:26;;;;;;;;;;;;;;;14.29;100.00;101065.06;5114388;28;20363;-48
2023/10/12 04:01:54;;;;;;;;;;;;;;;14.29;100.00;101073.72;5115682;28;20287;-50
2023/10/12 04:04:21;;;;;;;;;;;;;;;14.27;100.00;101071.94;5115479;28;19911;-50
2023/10/12 04:09:43;;;;;;;;;;;;;;;14.26;100.00;101094.38;5115543;28;19915;-50
2023/10/12 04:14:53;;;;;;;;;;;;;;;14.26;100.00;101093.53;5115449;28;19912;-47
2023/10/12 04:22:40;;;;;;;;;;;;;;;14.21;100.00;101084.78;5115262;28;19955;-50
2023/10/12 04:25:13;;;;;;;;;;;;;;;14.23;100.00;101083.09;5115322;28;20363;-50
2023/10/12 04:27:38;;;;;;;;;;;;;;;14.22;100.00;101081.38;5114591;28;19915;-50
2023/10/12 04:30:18;;;;;;;;;;;;;;;14.21;100.00;101077.03;5115392;28;19919;-50
2023/10/12 04:32:57;;;;;;;;;;;;;;;14.21;100.00;101079.63;5115322;28;19911;-50
2023/10/12 04:38:22;;;;;;;;;;;;;;;14.19;100.00;101091.66;5115290;28;19911;-50
2023/10/12 04:41:23;;;;;;;;;;;;;;;14.18;100.00;101085.63;5114355;28;19912;-49
2023/10/12 04:43:34;;;;;;;;;;;;;;;14.18;100.00;101087.31;5114415;28;20038;-50
2023/10/12 04:48:43;;;;;;;;;;;;;;;14.15;100.00;101095.91;5113052;28;19912;-48
2023/10/12 04:51:18;;;;;;;;;;;;;;;14.15;100.00;101101.09;5114975;28;19972;-51
2023/10/12 04:54:05;;;;;;;;;;;;;;;14.15;100.00;101101.97;5114927;28;19912;-50
2023/10/12 04:56:36;;;;;;;;;;;;;;;14.15;100.00;101094.19;5113718;28;19916;-50
2023/10/12 04:59:14;;;;;;;;;;;;;;;14.15;100.00;101091.63;5114415;28;19922;-48
2023/10/12 05:07:27;;;;;;;;;;;;;;;14.15;100.00;101090.72;5114452;28;19965;-50
2023/10/12 05:09:50;;;;;;;;;;;;;;;14.16;100.00;101108.03;5113208;28;20003;-46
2023/10/12 05:12:16;;;;;;;;;;;;;;;14.16;100.00;101116.69;5114215;28;19947;-51
2023/10/12 05:14:41;;;;;;;;;;;;;;;14.18;100.00;101123.59;5114329;28;19919;-50
2023/10/12 05:17:08;;;;;;;;;;;;;;;14.19;100.00;101127.94;5113462;28;19919;-50
2023/10/12 05:19:33;;;;;;;;;;;;;;;14.17;100.00;101130.50;5113863;28;20317;-51
2023/10/12 05:21:59;;;;;;;;;;;;;;;14.20;100.00;101124.50;5114178;28;19936;-49
2023/10/12 05:24:24;;;;;;;;;;;;;;;14.20;100.00;101129.69;5113214;28;19953;-51
2023/10/12 05:26:52;;;;;;;;;;;;;;;14.20;100.00;101121.91;5114124;28;19912;-51
2023/10/12 05:29:27;;;;;;;;;;;;;;;14.22;100.00;101122.84;5113891;28;19992;-50
2023/10/12 05:37:16;;;;;;;;;;;;;;;14.21;100.00;101132.31;5113390;28;19912;-50
2023/10/12 05:39:50;;;;;;;;;;;;;;;14.20;100.00;101134.88;5113922;28;19919;-50
2023/10/12 05:42:19;;;;;;;;;;;;;;;14.21;100.00;101136.63;5113575;28;19912;-49
2023/10/12 05:44:44;;;;;;;;;;;;;;;14.20;100.00;101124.50;5113018;28;19911;-51
2023/10/12 05:47:12;;;;;;;;;;;;;;;14.21;100.00;101136.63;5114028;28;19919;-51
2023/10/12 05:49:40;;;;;;;;;;;;;;;14.20;100.00;101135.75;5113932;28;19947;-50
2023/10/12 05:52:06;;;;;;;;;;;;;;;14.21;100.00;101141.81;5113096;28;19912;-50
2023/10/12 05:54:31;;;;;;;;;;;;;;;14.22;100.00;101153.94;5113487;28;19912;-49
2023/10/12 05:56:56;;;;;;;;;;;;;;;14.23;100.00;101155.66;5113582;28;19938;-50
2023/10/12 05:59:24;;;;;;;;;;;;;;;14.22;100.00;101160.00;5112097;28;19920;-49
2023/10/12 06:01:49;;;;;;;;;;;;;;;14.21;100.00;101167.75;5113838;28;19912;-50
2023/10/12 06:04:15;;;;;;;;;;;;;;;14.21;100.00;101162.56;5113424;28;19918;-47
2023/10/12 06:06:41;;;;;;;;;;;;;;;14.21;100.00;101170.34;5113013;28;19911;-50
2023/10/12 06:09:23;;;;;;;;;;;;;;;14.20;100.00;101164.25;5113707;28;20002;-50
2023/10/12 06:11:49;;;;;;;;;;;;;;;14.21;100.00;101165.16;5112749;28;19911;-50
2023/10/12 06:14:14;;;;;;;;;;;;;;;14.18;100.00;101171.16;5113149;28;19912;-49
2023/10/12 06:16:44;;;;;;;;;;;;;;;14.19;100.00;101165.13;5113647;28;20385;-51
2023/10/12 06:19:34;;;;;;;;;;;;;;;14.19;100.00;101169.41;5112537;28;20347;-51
2023/10/12 06:21:59;;;;;;;;;;;;;;;14.18;100.00;101178.94;5113300;28;19918;-50
2023/10/12 06:24:33;;;;;;;;;;;;;;;14.18;100.00;101184.13;5113191;28;19912;-51
2023/10/12 06:29:45;;;;;;;;;;;;;;;14.19;100.00;101179.78;5113575;28;20256;-51
2023/10/12 06:32:17;;;;;;;;;;;;;;;14.20;100.00;101181.53;5113086;28;19990;-46
2023/10/12 06:34:43;;;;;;;;;;;;;;;14.19;100.00;101179.78;5112690;28;19958;-47
2023/10/12 06:37:30;;;;;;;;;;;;;;;14.18;100.00;101181.53;5113409;28;19912;-49
2023/10/12 06:40:37;;;;;;;;;;;;;;;14.19;100.00;101177.19;5112483;28;19911;-48
2023/10/12 06:45:47;;;;;;;;;;;;;;;14.15;100.00;101184.03;5113438;28;20359;-49
2023/10/12 06:51:02;;;;;;;;;;;;;;;14.13;100.00;101189.19;5113318;28;19992;-50
2023/10/12 06:53:31;;;;;;;;;;;;;;;14.14;100.00;101182.31;5112927;28;20010;-50
2023/10/12 06:55:59;;;;;;;;;;;;;;;14.14;100.00;101187.50;5112241;28;20310;-49
2023/10/12 06:58:36;;;;;;;;;;;;;;;14.15;100.00;101195.28;5112730;28;19920;-48
2023/10/12 07:01:18;;;;;;;;;;;;;;;14.15;100.00;101195.28;5112441;28;19990;-50
2023/10/12 07:03:47;;;;;;;;;;;;;;;14.15;100.00;101200.47;5113214;28;19908;-50
2023/10/12 07:06:14;;;;;;;;;;;;;;;14.15;100.00;101203.06;5112741;28;20271;-50
2023/10/12 07:08:42;;;;;;;;;;;;;;;14.18;100.00;101198.78;5112318;28;19951;-50
2023/10/12 07:11:08;;;;;;;;;;;;;;;14.20;100.00;101207.47;5114305;28;19915;-49
2023/10/12 07:13:39;;;;;;;;;;;;;;;14.18;100.00;101211.72;5116375;28;19912;-48
2023/10/12 07:16:06;;;;;;;;;;;;;;;14.18;100.00;101214.31;5115851;28;19911;-50
2023/10/12 07:18:34;;;;;;;;;;;;;;;14.19;100.00;101213.50;5116454;28;20002;-47
2023/10/12 07:20:59;;;;;;;;;;;;;;;14.18;100.00;101217.81;5116735;28;19943;-50
2023/10/12 07:23:35;;;;;;;;;;;;;;;14.19;100.00;101216.09;5115603;28;19959;-50
2023/10/12 07:26:01;;;;;;;;;;;;;;;14.19;100.00;101222.16;5116554;28;19912;-50
2023/10/12 07:28:32;;;;;;;;;;;;;;;14.20;100.00;101229.06;5116054;28;19919;-50
2023/10/12 07:42:02;;;;;;;;;;;;;;;14.28;100.00;101237.00;5102445;28;19919;-50
2023/10/12 07:44:28;;;;;;;;;;;;;;;14.27;100.00;101235.28;5114989;28;19988;-50
2023/10/12 07:46:56;;;;;;;;;;;;;;;14.27;100.00;101238.75;5116025;28;20435;-51
2023/10/12 07:49:25;;;;;;;;;;;;;;;14.28;100.00;101242.19;5115489;28;20328;-49
2023/10/12 07:52:21;;;;;;;;;;;;;;;14.29;100.00;101238.75;5115059;28;20336;-49
2023/10/12 07:54:47;;;;;;;;;;;;;;;14.28;100.00;101242.19;5115966;28;19912;-50
2023/10/12 07:57:13;;;;;;;;;;;;;;;14.28;100.00;101242.19;5114734;28;19911;-50
2023/10/12 07:59:41;;;;;;;;;;;;;;;14.28;100.00;101242.19;5115684;28;19915;-50
2023/10/12 08:02:08;;;;;;;;;;;;;;;14.28;100.00;101247.38;5115587;28;20337;-51
2023/10/12 08:04:39;;;;;;;;;;;;;;;14.26;100.00;101241.31;5114894;28;20278;-51
2023/10/12 08:07:07;;;;;;;;;;;;;;;14.27;100.00;101240.47;5115645;28;20275;-50
2023/10/12 08:11:58;;;;;;;;;;;;;;;14.28;100.00;101242.19;5114922;28;19908;-51
2023/10/12 08:19:39;;;;;;;;;;;;;;;14.39;100.00;101237.25;5114375;28;20065;-49
2023/10/12 08:22:26;;;;;;;;;;;;;;;14.42;100.00;101239.88;5115242;28;20355;-47
2023/10/12 08:24:56;;;;;;;;;;;;;;;14.47;100.00;101246.94;5115499;28;20014;-50
2023/10/12 08:27:21;;;;;;;;;;;;;;;14.53;100.00;101247.91;5114136;28;19994;-50
2023/10/12 08:32:34;;;;;;;;;;;;;;;14.62;100.00;101245.47;5114994;28;19912;-50
2023/10/12 08:37:35;;;;;;;;;;;;;;;14.85;100.00;101247.66;5114772;28;19995;-49
2023/10/12 08:40:08;;;;;;;;;;;;;;;14.95;100.00;101245.25;5114341;28;19934;-51
2023/10/12 08:45:07;;;;;;;;;;;;;;;15.19;100.00;101249.13;5114956;28;20406;-51
2023/10/12 08:52:27;;;;;;;;;;;;;;;15.43;100.00;101259.06;5114603;28;20397;-50
2023/10/12 08:54:55;;;;;;;;;;;;;;;15.45;100.00;101261.66;5114059;28;19998;-49
2023/10/12 08:57:33;;;;;;;;;;;;;;;15.47;100.00;101263.44;5114069;28;19918;-50
2023/10/12 09:00:24;;;;;;;;;;;;;;;15.51;100.00;101276.50;5114589;28;19938;-50
2023/10/12 09:03:00;;;;;;;;;;;;;;;15.56;100.00;101282.66;5113990;28;20056;-51
2023/10/12 09:05:30;;;;;;;;;;;;;;;15.57;100.00;101276.56;5114383;28;19961;-50
2023/10/12 09:13:27;;;;;;;;;;;;;;;15.46;100.00;101269.47;5114107;28;19954;-51
2023/10/12 09:15:56;;;;;;;;;;;;;;;15.39;100.00;101266.75;5113487;28;20385;-51
2023/10/12 09:18:25;;;;;;;;;;;;;;;15.31;100.00;101269.22;5113910;28;19907;-51
2023/10/12 09:23:28;;;;;;;;;;;;;;;15.18;100.00;101264.69;5113142;28;19942;-49
2023/10/12 09:26:14;;;;;;;;;;;;;;;15.13;100.00;101270.69;5114470;28;19911;-50
2023/10/12 09:31:48;;;;;;;;;;;;;;;15.06;100.00;101261.03;5113863;28;19999;-50
2023/10/12 09:36:43;;;;;;;;;;;;;;;15.05;100.00;101254.06;5113134;28;19935;-48
2023/10/12 09:39:12;;;;;;;;;;;;;;;15.07;100.00;101248.94;5113934;28;19916;-50
2023/10/12 09:41:39;;;;;;;;;;;;;;;15.11;100.00;101248.13;5113897;28;19912;-50
2023/10/12 09:44:05;;;;;;;;;;;;;;;15.20;100.00;101257.81;5112951;28;19911;-49
2023/10/12 09:46:33;;;;;;;;;;;;;;;15.27;100.00;101246.66;5113783;28;19915;-50
2023/10/12 09:49:08;;;;;;;;;;;;;;;15.29;100.00;101237.19;5113089;28;20031;-50
2023/10/12 09:51:45;;;;;;;;;;;;;;;15.29;100.00;101243.25;5112698;28;20397;-51
2023/10/12 09:54:16;;;;;;;;;;;;;;;15.31;100.00;101241.56;5113721;28;20048;-49
2023/10/12 09:56:46;;;;;;;;;;;;;;;15.36;100.00;101243.34;5113590;28;19964;-48
2023/10/12 09:59:18;;;;;;;;;;;;;;;15.41;100.00;101246.88;5113277;28;19915;-51
2023/10/12 10:01:49;;;;;;;;;;;;;;;15.43;100.00;101240.88;5114022;28;19912;-49
2023/10/12 10:07:03;;;;;;;;;;;;;;;15.45;100.00;101233.09;5113659;28;19912;-50
2023/10/12 10:09:37;;;;;;;;;;;;;;;15.44;100.00;101247.81;5113472;28;19919;-50
2023/10/12 10:12:05;;;;;;;;;;;;;;;15.40;100.00;101243.44;5112899;28;19919;-50
2023/10/12 10:14:37;;;;;;;;;;;;;;;15.37;100.00;101245.97;5113318;28;20308;-51
2023/10/12 10:17:02;;;;;;;;;;;;;;;15.35;100.00;101237.28;5113677;28;19912;-51
2023/10/12 10:19:32;;;;;;;;;;;;;;;15.34;100.00;101235.53;5112343;28;19915;-47
2023/10/12 10:22:05;;;;;;;;;;;;;;;15.36;100.00;101233.81;5113697;28;19918;-51
2023/10/12 10:24:34;;;;;;;;;;;;;;;15.38;100.00;101226.94;5113318;28;19990;-50
2023/10/12 10:27:15;;;;;;;;;;;;;;;15.38;100.00;101219.16;5112590;28;20336;-50
2023/10/12 10:30:10;;;;;;;;;;;;;;;15.38;100.00;101219.16;5113566;28;19957;-50
2023/10/12 10:32:38;;;;;;;;;;;;;;;15.42;100.00;101214.88;5112564;28;19935;-50
2023/10/12 10:35:13;;;;;;;;;;;;;;;15.44;100.00;101214.06;5113276;28;20355;-48
2023/10/12 10:37:57;;;;;;;;;;;;;;;15.46;100.00;101212.34;5113391;28;19915;-50
2023/10/12 10:40:39;;;;;;;;;;;;;;;15.52;100.00;101214.16;5112047;28;19964;-51
2023/10/12 10:43:05;;;;;;;;;;;;;;;15.57;100.00;101207.31;5113484;28;19915;-50
2023/10/12 10:45:34;;;;;;;;;;;;;;;15.63;100.00;101209.13;5113331;28;19922;-48
2023/10/12 10:48:03;;;;;;;;;;;;;;;15.77;100.00;101211.91;5116431;28;20346;-50
2023/10/12 10:50:29;;;;;;;;;;;;;;;15.91;100.00;101210.41;5116834;28;19918;-49
2023/10/12 10:52:59;;;;;;;;;;;;;;;16.06;100.00;101211.47;5117126;28;19912;-50
2023/10/12 10:55:25;;;;;;;;;;;;;;;16.19;100.00;101207.28;5116431;28;20270;-50
2023/10/12 10:57:53;;;;;;;;;;;;;;;16.32;100.00;101204.00;5116927;28;19916;-51
2023/10/12 11:00:21;;;;;;;;;;;;;;;16.45;100.00;101205.00;5115869;28;19960;-51
2023/10/12 11:02:52;;;;;;;;;;;;;;;16.60;100.00;101209.50;5116900;28;19911;-51
2023/10/12 11:05:19;;;;;;;;;;;;;;;16.76;100.00;101206.19;5116569;28;19998;-49
2023/10/12 11:07:50;;;;;;;;;;;;;;;16.86;100.00;101211.47;5116251;28;19964;-51
2023/10/12 11:11:14;;;;;;;;;;;;;;;16.83;100.00;101209.72;5116671;28;19919;-51
2023/10/12 11:13:19;;;;;;;;;;;;;;;16.76;100.00;101206.19;5116285;28;20332;-50
2023/10/12 11:15:44;;;;;;;;;;;;;;;16.65;100.00;101202.59;5115740;28;20010;-50
2023/10/12 11:18:17;;;;;;;;;;;;;;;16.60;100.00;101199.97;5116775;28;20415;-50
2023/10/12 11:20:53;;;;;;;;;;;;;;;16.61;100.00;101190.41;5116808;28;19911;-51
2023/10/12 11:23:19;;;;;;;;;;;;;;;16.67;100.00;101198.28;5115515;28;19916;-51
2023/10/12 11:25:44;;;;;;;;;;;;;;;16.73;100.00;101200.97;5116697;28;20283;-50
2023/10/12 11:28:16;;;;;;;;;;;;;;;16.75;100.00;101199.22;5115916;28;19912;-49
2023/10/12 11:30:42;;;;;;;;;;;;;;;16.69;100.00;101199.16;5116388;28;20359;-51
2023/10/12 11:33:09;;;;;;;;;;;;;;;16.65;100.00;101201.75;5116369;28;20395;-50
2023/10/12 11:35:41;;;;;;;;;;;;;;;16.64;100.00;101190.44;5115446;28;19911;-50
2023/10/12 11:38:19;;;;;;;;;;;;;;;16.62;100.00;101185.22;5116397;28;19911;-50
2023/10/12 11:40:48;;;;;;;;;;;;;;;16.64;100.00;101185.22;5116136;28;19918;-50
2023/10/12 11:43:13;;;;;;;;;;;;;;;16.62;100.00;101187.81;5115299;28;20072;-51
2023/10/12 11:45:55;;;;;;;;;;;;;;;16.62;100.00;101186.97;5116159;28;20381;-49
2023/10/12 11:48:21;;;;;;;;;;;;;;;16.57;100.00;101193.84;5097544;28;19919;-49
2023/10/12 11:50:48;;;;;;;;;;;;;;;16.54;100.00;101186.00;5115189;28;19911;-50
2023/10/12 11:53:17;;;;;;;;;;;;;;;16.51;100.00;101178.16;5115627;28;19911;-51
2023/10/12 11:55:43;;;;;;;;;;;;;;;16.48;100.00;101180.75;5115794;28;20248;-51
2023/10/12 11:58:08;;;;;;;;;;;;;;;16.46;100.00;101181.59;5114655;28;19920;-50
2023/10/12 12:00:44;;;;;;;;;;;;;;;16.46;100.00;101181.59;5115527;28;19953;-51
2023/10/12 12:03:10;;;;;;;;;;;;;;;16.45;100.00;101177.25;5115838;28;19912;-50
2023/10/12 12:05:39;;;;;;;;;;;;;;;16.44;100.00;101172.91;5114821;28;19919;-51
2023/10/12 12:08:13;;;;;;;;;;;;;;;16.48;100.00;101179.00;5115882;28;20343;-49
2023/10/12 12:10:45;;;;;;;;;;;;;;;16.55;100.00;101185.16;5115145;28;19922;-50
2023/10/12 12:13:12;;;;;;;;;;;;;;;16.60;100.00;101178.25;5116008;28;20002;-50
2023/10/12 12:15:40;;;;;;;;;;;;;;;16.66;100.00;101178.31;5115618;28;19911;-50
2023/10/12 12:18:10;;;;;;;;;;;;;;;16.67;100.00;101182.69;5114567;28;19916;-49
2023/10/12 12:20:39;;;;;;;;;;;;;;;16.66;100.00;101183.53;5115535;28;19911;-51
2023/10/12 12:23:05;;;;;;;;;;;;;;;16.69;100.00;101178.34;5115553;28;19911;-50
2023/10/12 12:25:34;;;;;;;;;;;;;;;16.72;100.00;101170.59;5114375;28;20373;-49
2023/10/12 12:28:03;;;;;;;;;;;;;;;16.75;100.00;101161.94;5115498;28;19916;-51
2023/10/12 12:30:32;;;;;;;;;;;;;;;16.74;100.00;101145.44;5115072;28;19915;-51
2023/10/12 12:33:00;;;;;;;;;;;;;;;16.68;100.00;101132.38;5114366;28;19916;-50
2023/10/12 12:35:27;;;;;;;;;;;;;;;16.62;100.00;101133.19;5114961;28;19951;-49
2023/10/12 12:38:00;;;;;;;;;;;;;;;16.57;100.00;101128.81;5114952;28;20350;-51
2023/10/12 12:40:29;;;;;;;;;;;;;;;16.50;100.00;101130.47;5114028;28;19918;-48
2023/10/12 12:42:55;;;;;;;;;;;;;;;16.45;100.00;101135.63;5115064;28;20381;-50
2023/10/12 12:45:20;;;;;;;;;;;;;;;16.42;100.00;101146.00;5114857;28;19912;-50
2023/10/12 12:47:45;;;;;;;;;;;;;;;16.43;100.00;101147.72;5114013;28;19912;-50
2023/10/12 12:50:10;;;;;;;;;;;;;;;16.41;100.00;101145.97;5114904;28;19912;-48
2023/10/12 12:52:36;;;;;;;;;;;;;;;16.36;100.00;101147.66;5114196;28;19912;-50
2023/10/12 12:55:02;;;;;;;;;;;;;;;16.34;100.00;101150.25;5114761;28;19980;-50
2023/10/12 12:57:27;;;;;;;;;;;;;;;16.31;100.00;101145.03;5114168;28;20347;-50
2023/10/12 12:59:54;;;;;;;;;;;;;;;16.28;100.00;101142.38;5113774;28;19961;-51
2023/10/12 13:02:19;;;;;;;;;;;;;;;16.25;100.00;101144.94;5114472;28;19911;-51
2023/10/12 13:04:44;;;;;;;;;;;;;;;16.26;100.00;101144.09;5114658;28;19937;-50
2023/10/12 13:07:12;;;;;;;;;;;;;;;16.28;100.00;101143.25;5113740;28;19933;-49
2023/10/12 13:09:37;;;;;;;;;;;;;;;16.29;100.00;101142.41;5113702;28;19912;-51
2023/10/12 13:12:06;;;;;;;;;;;;;;;16.27;100.00;101140.66;5114359;28;19964;-51
2023/10/12 13:14:31;;;;;;;;;;;;;;;16.24;100.00;101145.78;5113057;28;20342;-51
2023/10/12 13:16:56;;;;;;;;;;;;;;;16.18;100.00;101145.72;5114587;28;19999;-50
2023/10/12 13:19:22;;;;;;;;;;;;;;;16.13;100.00;101145.69;5113813;28;20355;-50
2023/10/12 13:21:47;;;;;;;;;;;;;;;16.08;100.00;101137.81;5113767;28;20355;-50
2023/10/12 13:24:13;;;;;;;;;;;;;;;16.03;100.00;101143.84;5113879;28;19912;-51
2023/10/12 13:26:43;;;;;;;;;;;;;;;15.97;100.00;101123.81;5114168;28;19911;-50
2023/10/12 13:29:08;;;;;;;;;;;;;;;15.95;100.00;101133.34;5113245;28;19919;-50
2023/10/12 13:31:35;;;;;;;;;;;;;;;15.95;100.00;101135.94;5114001;28;19960;-49
2023/10/12 13:34:02;;;;;;;;;;;;;;;15.93;100.00;101132.44;5114354;28;19912;-50
2023/10/12 13:36:27;;;;;;;;;;;;;;;15.94;100.00;101137.66;5113136;28;19919;-51
2023/10/12 13:38:54;;;;;;;;;;;;;;;15.97;100.00;101134.22;5113963;28;19911;-50
2023/10/12 13:41:20;;;;;;;;;;;;;;;15.98;100.00;101138.56;5113521;28;20305;-49
2023/10/12 13:43:48;;;;;;;;;;;;;;;16.01;100.00;101124.75;5113007;28;20003;-51
2023/10/12 13:46:15;;;;;;;;;;;;;;;16.03;100.00;101123.03;5113840;28;19947;-50
2023/10/12 13:48:41;;;;;;;;;;;;;;;16.04;100.00;101119.59;5113950;28;20006;-49
2023/10/12 13:51:23;;;;;;;;;;;;;;;16.08;100.00;101124.81;5113080;28;20002;-49
2023/10/12 13:53:52;;;;;;;;;;;;;;;16.19;100.00;101118.88;5113750;28;19916;-50
2023/10/12 13:56:17;;;;;;;;;;;;;;;16.29;100.00;101118.13;5112515;28;19911;-50
2023/10/12 13:58:44;;;;;;;;;;;;;;;16.42;100.00;101116.50;5113458;28;19922;-48
2023/10/12 14:01:15;;;;;;;;;;;;;;;16.54;100.00;101111.44;5113691;28;20260;-50
2023/10/12 14:03:44;;;;;;;;;;;;;;;16.66;100.00;101109.81;5112994;28;19994;-50
2023/10/12 14:06:10;;;;;;;;;;;;;;;16.71;100.00;101103.78;5113652;28;19950;-50
2023/10/12 14:08:40;;;;;;;;;;;;;;;16.72;100.00;101105.53;5113311;28;19907;-50
2023/10/12 14:11:06;;;;;;;;;;;;;;;16.68;100.00;101106.34;5113008;28;19911;-48
2023/10/12 14:13:32;;;;;;;;;;;;;;;16.61;100.00;101107.16;5113387;28;19943;-49
2023/10/12 14:15:57;;;;;;;;;;;;;;;16.50;100.00;101112.28;5113614;28;19918;-49
2023/10/12 14:18:22;;;;;;;;;;;;;;;16.42;100.00;101104.41;5112454;28;19911;-50
2023/10/12 14:20:49;;;;;;;;;;;;;;;16.34;100.00;101098.22;5116100;28;19911;-50
2023/10/12 14:23:15;;;;;;;;;;;;;;;16.27;100.00;101096.44;5117335;28;19912;-50